Date,TemperatureHighF,TemperatureAvgF,TemperatureLowF,DewpointHighF,DewpointAvgF,DewpointLowF,HumidityHigh,HumidityAvg,HumidityLow,PressureMaxIn,PressureMinIn,WindSpeedMaxMPH,WindSpeedAvgMPH,GustSpeedMaxMPH,PrecipitationSumIn
2013-11-1,61,53,47,58,47,42,95,81,72,29.73,29.24,42,6,50,0.25
2013-11-2,47,45,42,44,43,40,96,93,84,30.07,29.70,22,2,22,1.31
2013-11-3,45,38,30,40,33,26,96,82,61,30.54,30.07,20,2,20,0.00
2013-11-4,46,38,30,28,24,21,82,59,40,30.60,30.44,36,6,36,0.00
2013-11-5,59,51,43,44,37,28,72,60,53,30.48,30.31,34,6,34,0.00
2013-11-6,66,56,49,56,46,35,95,70,56,30.31,29.92,40,8,42,0.32
2013-11-7,49,41,37,47,36,28,96,81,61,30.17,29.96,30,5,30,0.41
2013-11-8,41,38,33,34,29,26,94,72,56,30.34,30.13,24,5,24,0.10
2013-11-9,57,46,33,44,34,27,78,63,45,30.31,29.92,54,8,54,0.02
2013-11-10,53,45,41,43,34,28,74,66,55,30.31,29.96,44,9,44,0.00
2013-11-11,47,39,30,40,33,29,96,79,55,30.30,30.07,14,4,40,0.33
2013-11-12,34,30,28,29,26,20,96,82,66,30.56,30.27,24,3,24,0.07
2013-11-13,37,32,28,25,21,18,80,65,51,30.59,30.32,36,5,36,0.10
2013-11-14,50,40,30,24,22,19,70,50,31,30.33,30.14,34,7,36,0.18
2013-11-15,51,46,39,33,26,22,60,47,37,30.18,30.11,34,6,34,0.00
2013-11-16,60,51,42,51,44,32,82,75,60,30.24,29.95,40,8,40,0.00
2013-11-17,62,59,52,57,53,41,93,82,65,29.95,29.43,66,13,66,0.41
2013-11-18,52,43,36,42,34,25,79,72,66,30.15,29.58,56,12,56,0.00
2013-11-19,38,35,27,28,26,24,88,72,59,30.48,30.15,20,3,20,0.00
2013-11-20,47,36,25,26,21,17,91,58,31,30.52,30.38,34,4,34,0.00
2013-11-21,46,41,37,41,32,18,91,72,41,30.43,30.25,40,7,40,0.07
2013-11-22,48,43,35,47,41,30,98,93,80,30.37,30.16,32,5,32,0.27
2013-11-23,35,29,21,30,21,6,90,70,53,30.47,30.26,34,9,40,0.00
2013-11-24,23,22,20,16,12,6,78,65,51,30.61,30.46,44,8,44,0.00
2013-11-25,35,26,18,24,16,12,83,66,45,30.54,30.23,40,7,40,0.00
2013-11-26,34,32,31,31,28,20,96,85,58,30.24,29.90,22,2,22,0.00
2013-11-27,32,28,24,31,22,16,95,81,68,30.20,29.86,38,6,38,0.00
2013-11-28,28,25,21,21,19,15,89,75,64,30.49,30.20,24,4,26,0.00
2013-11-29,32,28,25,24,22,20,86,78,68,30.73,30.49,14,1,14,0.04
2013-11-30,41,33,26,29,24,19,77,70,57,30.68,30.22,36,8,36,0.06